sensor_id;sensor_type;location;lat;lon;timestamp;pressure;altitude;pressure_sealevel;temperature;humidity
39209;BME280;24929;51.982;4.664;2023-05-14T00:02:12;77069.53;;;-143.36;49.04
39209;BME280;24929;51.982;4.664;2023-05-14T00:04:37;77061.50;;;-143.36;48.54
39209;BME280;24929;51.982;4.664;2023-05-14T00:07:02;77059.50;;;-143.36;48.52
39209;BME280;24929;51.982;4.664;2023-05-14T00:09:28;77051.47;;;-143.36;48.52
39209;BME280;24929;51.982;4.664;2023-05-14T00:11:54;77061.50;;;-143.36;48.65
39209;BME280;24929;51.982;4.664;2023-05-14T00:14:20;77081.59;;;-143.36;49.00
39209;BME280;24929;51.982;4.664;2023-05-14T00:16:45;77081.59;;;-143.36;49.18
39209;BME280;24929;51.982;4.664;2023-05-14T00:19:11;77069.53;;;-143.36;48.90
39209;BME280;24929;51.982;4.664;2023-05-14T00:21:36;77061.50;;;-143.36;49.02
39209;BME280;24929;51.982;4.664;2023-05-14T00:24:01;77073.56;;;-143.36;49.10
39209;BME280;24929;51.982;4.664;2023-05-14T00:26:27;77061.50;;;-143.36;48.92
39209;BME280;24929;51.982;4.664;2023-05-14T00:28:52;77061.50;;;-143.36;48.91
39209;BME280;24929;51.982;4.664;2023-05-14T00:31:17;77053.47;;;-143.36;48.94
39209;BME280;24929;51.982;4.664;2023-05-14T00:33:43;77049.47;;;-143.36;48.91
39209;BME280;24929;51.982;4.664;2023-05-14T00:36:08;77047.47;;;-143.36;48.82
39209;BME280;24929;51.982;4.664;2023-05-14T00:38:33;77059.50;;;-143.36;49.04
39209;BME280;24929;51.982;4.664;2023-05-14T00:40:59;77059.50;;;-143.36;48.68
39209;BME280;24929;51.982;4.664;2023-05-14T00:43:24;77085.59;;;-143.36;49.47
39209;BME280;24929;51.982;4.664;2023-05-14T00:45:51;77045.44;;;-143.36;49.37
39209;BME280;24929;51.982;4.664;2023-05-14T00:48:18;77041.44;;;-143.36;49.46
39209;BME280;24929;51.982;4.664;2023-05-14T00:50:44;77057.50;;;-143.36;49.49
39209;BME280;24929;51.982;4.664;2023-05-14T00:53:10;77037.44;;;-143.36;49.20
39209;BME280;24929;51.982;4.664;2023-05-14T00:55:37;77045.44;;;-143.36;49.10
39209;BME280;24929;51.982;4.664;2023-05-14T00:58:06;77033.41;;;-143.36;49.09
39209;BME280;24929;51.982;4.664;2023-05-14T01:00:33;77057.50;;;-143.36;49.14
39209;BME280;24929;51.982;4.664;2023-05-14T01:02:59;77059.50;;;-143.36;48.81
39209;BME280;24929;51.982;4.664;2023-05-14T01:05:35;77037.44;;;-143.36;49.25
39209;BME280;24929;51.982;4.664;2023-05-14T01:10:51;77017.34;;;-143.36;48.65
39209;BME280;24929;51.982;4.664;2023-05-14T01:13:26;77039.44;;;-143.36;48.50
39209;BME280;24929;51.982;4.664;2023-05-14T01:15:57;77025.38;;;-143.36;48.03
39209;BME280;24929;51.982;4.664;2023-05-14T01:18:24;77067.53;;;-143.36;48.67
39209;BME280;24929;51.982;4.664;2023-05-14T01:20:50;77077.56;;;-143.36;48.50
39209;BME280;24929;51.982;4.664;2023-05-14T01:23:16;77105.66;;;-143.36;49.51
39209;BME280;24929;51.982;4.664;2023-05-14T01:25:42;77107.66;;;-143.36;49.12
39209;BME280;24929;51.982;4.664;2023-05-14T01:28:17;77071.53;;;-143.36;48.74
39209;BME280;24929;51.982;4.664;2023-05-14T01:30:52;77087.59;;;-143.36;49.35
39209;BME280;24929;51.982;4.664;2023-05-14T01:33:18;77119.72;;;-143.36;49.60
39209;BME280;24929;51.982;4.664;2023-05-14T01:35:46;77133.75;;;-143.36;49.49
39209;BME280;24929;51.982;4.664;2023-05-14T01:38:14;77119.72;;;-143.36;49.68
39209;BME280;24929;51.982;4.664;2023-05-14T01:40:43;77119.72;;;-143.36;49.76
39209;BME280;24929;51.982;4.664;2023-05-14T01:43:09;77157.84;;;-143.36;49.78
39209;BME280;24929;51.982;4.664;2023-05-14T01:45:36;77147.81;;;-143.36;49.60
39209;BME280;24929;51.982;4.664;2023-05-14T01:48:03;77129.75;;;-143.36;49.96
39209;BME280;24929;51.982;4.664;2023-05-14T01:50:29;77171.91;;;-143.36;50.18
39209;BME280;24929;51.982;4.664;2023-05-14T01:52:54;77167.88;;;-143.36;50.44
39209;BME280;24929;51.982;4.664;2023-05-14T01:55:21;77167.88;;;-143.36;50.60
39209;BME280;24929;51.982;4.664;2023-05-14T01:57:49;77167.88;;;-143.36;50.29
39209;BME280;24929;51.982;4.664;2023-05-14T02:00:14;77167.88;;;-143.36;50.33
39209;BME280;24929;51.982;4.664;2023-05-14T02:02:39;77171.91;;;-143.36;50.49
39209;BME280;24929;51.982;4.664;2023-05-14T02:05:05;77161.84;;;-143.36;50.46
39209;BME280;24929;51.982;4.664;2023-05-14T02:07:31;77189.97;;;-143.36;51.01
39209;BME280;24929;51.982;4.664;2023-05-14T02:09:56;77187.94;;;-143.36;50.93
39209;BME280;24929;51.982;4.664;2023-05-14T02:12:21;77185.94;;;-143.36;50.89
39209;BME280;24929;51.982;4.664;2023-05-14T02:14:47;77187.94;;;-143.36;51.04
39209;BME280;24929;51.982;4.664;2023-05-14T02:17:12;77214.03;;;-143.36;51.70
39209;BME280;24929;51.982;4.664;2023-05-14T02:19:40;77208.03;;;-143.36;51.61
39209;BME280;24929;51.982;4.664;2023-05-14T02:22:06;77195.97;;;-143.36;51.39
39209;BME280;24929;51.982;4.664;2023-05-14T02:24:31;77210.03;;;-143.36;52.09
39209;BME280;24929;51.982;4.664;2023-05-14T02:26:56;77204.00;;;-143.36;51.95
39209;BME280;24929;51.982;4.664;2023-05-14T02:29:24;77214.03;;;-143.36;51.81
39209;BME280;24929;51.982;4.664;2023-05-14T02:31:49;77206.00;;;-143.36;52.49
39209;BME280;24929;51.982;4.664;2023-05-14T02:34:14;77202.00;;;-143.36;53.05
39209;BME280;24929;51.982;4.664;2023-05-14T02:36:40;77198.00;;;-143.36;52.58
39209;BME280;24929;51.982;4.664;2023-05-14T02:39:05;77200.00;;;-143.36;51.92
39209;BME280;24929;51.982;4.664;2023-05-14T02:41:31;77206.00;;;-143.36;52.44
39209;BME280;24929;51.982;4.664;2023-05-14T02:43:56;77218.06;;;-143.36;52.92
39209;BME280;24929;51.982;4.664;2023-05-14T02:46:21;77234.13;;;-143.36;53.18
39209;BME280;24929;51.982;4.664;2023-05-14T02:48:47;77240.13;;;-143.36;53.48
39209;BME280;24929;51.982;4.664;2023-05-14T02:51:12;77252.19;;;-143.36;53.50
39209;BME280;24929;51.982;4.664;2023-05-14T02:53:37;77250.16;;;-143.36;53.48
39209;BME280;24929;51.982;4.664;2023-05-14T02:56:03;77282.28;;;-143.36;54.01
39209;BME280;24929;51.982;4.664;2023-05-14T02:58:28;77274.25;;;-143.36;53.83
39209;BME280;24929;51.982;4.664;2023-05-14T03:00:54;77278.28;;;-143.36;53.95
39209;BME280;24929;51.982;4.664;2023-05-14T03:03:19;77286.31;;;-143.36;54.03
39209;BME280;24929;51.982;4.664;2023-05-14T03:05:45;77296.34;;;-143.36;54.67
39209;BME280;24929;51.982;4.664;2023-05-14T03:08:10;77302.34;;;-143.36;54.96
39209;BME280;24929;51.982;4.664;2023-05-14T03:10:35;77330.44;;;-143.36;55.84
39209;BME280;24929;51.982;4.664;2023-05-14T03:13:01;77304.38;;;-143.36;55.11
39209;BME280;24929;51.982;4.664;2023-05-14T03:15:26;77312.38;;;-143.36;55.29
39209;BME280;24929;51.982;4.664;2023-05-14T03:17:52;77304.38;;;-143.36;55.60
39209;BME280;24929;51.982;4.664;2023-05-14T03:20:17;77304.38;;;-143.36;55.59
39209;BME280;24929;51.982;4.664;2023-05-14T03:22:42;77314.41;;;-143.36;55.44
39209;BME280;24929;51.982;4.664;2023-05-14T03:25:08;77288.31;;;-143.36;55.08
39209;BME280;24929;51.982;4.664;2023-05-14T03:27:33;77292.31;;;-143.36;55.76
39209;BME280;24929;51.982;4.664;2023-05-14T03:30:02;77242.16;;;-143.36;55.53
39209;BME280;24929;51.982;4.664;2023-05-14T03:32:27;77274.25;;;-143.36;55.40
39209;BME280;24929;51.982;4.664;2023-05-14T03:34:53;77274.25;;;-143.36;55.80
39209;BME280;24929;51.982;4.664;2023-05-14T03:37:19;77282.28;;;-143.36;55.59
39209;BME280;24929;51.982;4.664;2023-05-14T03:39:44;77292.31;;;-143.36;56.15
39209;BME280;24929;51.982;4.664;2023-05-14T03:42:09;77274.25;;;-143.36;56.08
39209;BME280;24929;51.982;4.664;2023-05-14T03:44:35;77272.25;;;-143.36;55.99
39209;BME280;24929;51.982;4.664;2023-05-14T03:47:00;77276.25;;;-143.36;55.53
39209;BME280;24929;51.982;4.664;2023-05-14T03:49:25;77296.34;;;-143.36;56.53
39209;BME280;24929;51.982;4.664;2023-05-14T03:51:51;77272.25;;;-143.36;55.75
39209;BME280;24929;51.982;4.664;2023-05-14T03:54:16;77268.25;;;-143.36;55.75
39209;BME280;24929;51.982;4.664;2023-05-14T03:56:41;77262.22;;;-143.36;55.16
39209;BME280;24929;51.982;4.664;2023-05-14T03:59:07;77280.28;;;-143.36;55.61
39209;BME280;24929;51.982;4.664;2023-05-14T04:01:32;77272.25;;;-143.36;55.91
39209;BME280;24929;51.982;4.664;2023-05-14T04:03:58;77286.31;;;-143.36;56.03
39209;BME280;24929;51.982;4.664;2023-05-14T04:06:23;77286.31;;;-143.36;55.88
39209;BME280;24929;51.982;4.664;2023-05-14T04:08:48;77270.25;;;-143.36;55.61
39209;BME280;24929;51.982;4.664;2023-05-14T04:11:13;77262.22;;;-143.36;55.73
39209;BME280;24929;51.982;4.664;2023-05-14T04:13:39;77294.31;;;-143.36;55.93
39209;BME280;24929;51.982;4.664;2023-05-14T04:16:04;77268.25;;;-143.36;55.84
39209;BME280;24929;51.982;4.664;2023-05-14T04:18:30;77262.22;;;-143.36;55.38
39209;BME280;24929;51.982;4.664;2023-05-14T04:20:59;77258.19;;;-143.36;55.31
39209;BME280;24929;51.982;4.664;2023-05-14T04:23:24;77278.28;;;-143.36;55.90
39209;BME280;24929;51.982;4.664;2023-05-14T04:25:49;77274.25;;;-143.36;55.84
39209;BME280;24929;51.982;4.664;2023-05-14T04:28:15;77282.28;;;-143.36;55.31
39209;BME280;24929;51.982;4.664;2023-05-14T04:30:40;77264.22;;;-143.36;55.79
39209;BME280;24929;51.982;4.664;2023-05-14T04:33:05;77268.25;;;-143.36;56.16
39209;BME280;24929;51.982;4.664;2023-05-14T04:35:31;77250.16;;;-143.36;55.98
39209;BME280;24929;51.982;4.664;2023-05-14T04:37:56;77224.06;;;-143.36;55.56
39209;BME280;24929;51.982;4.664;2023-05-14T04:40:22;77230.09;;;-143.36;55.15
39209;BME280;24929;51.982;4.664;2023-05-14T04:42:47;77244.16;;;-143.36;54.87
39209;BME280;24929;51.982;4.664;2023-05-14T04:45:12;77224.06;;;-143.36;55.54
39209;BME280;24929;51.982;4.664;2023-05-14T04:47:38;77218.06;;;-143.36;55.91
39209;BME280;24929;51.982;4.664;2023-05-14T04:50:04;77193.97;;;-143.36;55.84
39209;BME280;24929;51.982;4.664;2023-05-14T04:52:32;77163.88;;;-143.36;55.68
39209;BME280;24929;51.982;4.664;2023-05-14T04:54:57;77183.94;;;-143.36;56.00
39209;BME280;24929;51.982;4.664;2023-05-14T04:57:22;77167.88;;;-143.36;55.34
39209;BME280;24929;51.982;4.664;2023-05-14T04:59:48;77169.88;;;-143.36;55.60
39209;BME280;24929;51.982;4.664;2023-05-14T05:02:13;77129.75;;;-143.36;54.85
39209;BME280;24929;51.982;4.664;2023-05-14T05:04:38;77145.81;;;-143.36;55.67
39209;BME280;24929;51.982;4.664;2023-05-14T05:07:04;77095.63;;;-143.36;54.43
39209;BME280;24929;51.982;4.664;2023-05-14T05:09:30;77131.75;;;-143.36;55.14
39209;BME280;24929;51.982;4.664;2023-05-14T05:11:56;77111.69;;;-143.36;54.80
39209;BME280;24929;51.982;4.664;2023-05-14T05:14:21;77109.69;;;-143.36;54.70
39209;BME280;24929;51.982;4.664;2023-05-14T05:16:46;77117.72;;;-143.36;54.65
39209;BME280;24929;51.982;4.664;2023-05-14T05:19:12;77103.66;;;-143.36;54.39
39209;BME280;24929;51.982;4.664;2023-05-14T05:21:37;77119.72;;;-143.36;55.21
39209;BME280;24929;51.982;4.664;2023-05-14T05:24:05;77091.63;;;-143.36;55.11
39209;BME280;24929;51.982;4.664;2023-05-14T05:26:31;77097.63;;;-143.36;55.07
39209;BME280;24929;51.982;4.664;2023-05-14T05:28:56;77101.66;;;-143.36;55.17
39209;BME280;24929;51.982;4.664;2023-05-14T05:31:21;77067.53;;;-143.36;54.88
39209;BME280;24929;51.982;4.664;2023-05-14T05:33:47;77075.56;;;-143.36;54.63
39209;BME280;24929;51.982;4.664;2023-05-14T05:36:12;77085.59;;;-143.36;54.87
39209;BME280;24929;51.982;4.664;2023-05-14T05:38:37;77091.63;;;-143.36;55.64
39209;BME280;24929;51.982;4.664;2023-05-14T05:41:03;77113.69;;;-143.36;56.23
39209;BME280;24929;51.982;4.664;2023-05-14T05:43:28;77131.75;;;-143.36;56.98
39209;BME280;24929;51.982;4.664;2023-05-14T05:45:53;77147.81;;;-143.36;56.95
39209;BME280;24929;51.982;4.664;2023-05-14T05:48:19;77109.69;;;-143.36;56.32
39209;BME280;24929;51.982;4.664;2023-05-14T05:50:46;77149.81;;;-143.36;58.04
39209;BME280;24929;51.982;4.664;2023-05-14T05:53:12;77147.81;;;-143.36;58.41
39209;BME280;24929;51.982;4.664;2023-05-14T05:55:39;77119.72;;;-143.36;58.01
39209;BME280;24929;51.982;4.664;2023-05-14T05:58:05;77149.81;;;-143.36;58.62
39209;BME280;24929;51.982;4.664;2023-05-14T06:00:30;77131.75;;;-143.36;58.48
39209;BME280;24929;51.982;4.664;2023-05-14T06:02:56;77109.69;;;-143.36;57.83
39209;BME280;24929;51.982;4.664;2023-05-14T06:05:21;77165.88;;;-143.36;58.85
39209;BME280;24929;51.982;4.664;2023-05-14T06:07:46;77121.72;;;-143.36;58.49
39209;BME280;24929;51.982;4.664;2023-05-14T06:10:12;77127.75;;;-143.36;58.01
39209;BME280;24929;51.982;4.664;2023-05-14T06:12:37;77109.69;;;-143.36;58.21
39209;BME280;24929;51.982;4.664;2023-05-14T06:15:03;77204.00;;;-143.36;59.83
39209;BME280;24929;51.982;4.664;2023-05-14T06:17:28;77145.81;;;-143.36;59.57
39209;BME280;24929;51.982;4.664;2023-05-14T06:19:53;77131.75;;;-143.36;59.20
39209;BME280;24929;51.982;4.664;2023-05-14T06:22:19;77183.94;;;-143.36;60.33
39209;BME280;24929;51.982;4.664;2023-05-14T06:24:44;77149.81;;;-143.36;60.10
39209;BME280;24929;51.982;4.664;2023-05-14T06:27:10;77113.69;;;-143.36;58.65
39209;BME280;24929;51.982;4.664;2023-05-14T06:29:36;77105.66;;;-143.36;59.46
39209;BME280;24929;51.982;4.664;2023-05-14T06:32:03;77069.53;;;-143.36;58.74
39209;BME280;24929;51.982;4.664;2023-05-14T06:34:28;77051.47;;;-143.36;58.36
39209;BME280;24929;51.982;4.664;2023-05-14T06:36:54;77075.56;;;-143.36;58.32
39209;BME280;24929;51.982;4.664;2023-05-14T06:39:19;77051.47;;;-143.36;57.52
39209;BME280;24929;51.982;4.664;2023-05-14T06:41:44;77037.44;;;-143.36;56.97
39209;BME280;24929;51.982;4.664;2023-05-14T06:44:10;77025.38;;;-143.36;57.26
39209;BME280;24929;51.982;4.664;2023-05-14T06:46:35;77075.56;;;-143.36;57.46
39209;BME280;24929;51.982;4.664;2023-05-14T06:49:01;77015.34;;;-143.36;55.86
39209;BME280;24929;51.982;4.664;2023-05-14T06:51:26;77015.34;;;-143.36;55.85
39209;BME280;24929;51.982;4.664;2023-05-14T06:53:52;77017.34;;;-143.36;56.67
39209;BME280;24929;51.982;4.664;2023-05-14T06:56:18;76969.19;;;-143.36;55.85
39209;BME280;24929;51.982;4.664;2023-05-14T06:58:43;76953.13;;;-143.36;56.16
39209;BME280;24929;51.982;4.664;2023-05-14T07:01:09;76957.16;;;-143.36;55.77
39209;BME280;24929;51.982;4.664;2023-05-14T07:03:34;76981.22;;;-143.36;56.13
39209;BME280;24929;51.982;4.664;2023-05-14T07:06:00;76961.16;;;-143.36;56.49
39209;BME280;24929;51.982;4.664;2023-05-14T07:08:25;76979.22;;;-143.36;56.24
39209;BME280;24929;51.982;4.664;2023-05-14T07:10:50;76969.19;;;-143.36;55.20
39209;BME280;24929;51.982;4.664;2023-05-14T07:13:16;76953.13;;;-143.36;55.80
39209;BME280;24929;51.982;4.664;2023-05-14T07:15:41;76959.16;;;-143.36;56.09
39209;BME280;24929;51.982;4.664;2023-05-14T07:18:06;76919.00;;;-143.36;54.23
39209;BME280;24929;51.982;4.664;2023-05-14T07:20:32;76872.84;;;-143.36;54.15
39209;BME280;24929;51.982;4.664;2023-05-14T07:22:57;76834.72;;;-143.36;52.34
39209;BME280;24929;51.982;4.664;2023-05-14T07:25:23;76882.88;;;-143.36;52.72
39209;BME280;24929;51.982;4.664;2023-05-14T07:27:48;76834.72;;;-143.36;52.19
39209;BME280;24929;51.982;4.664;2023-05-14T07:30:13;76884.91;;;-143.36;52.01
39209;BME280;24929;51.982;4.664;2023-05-14T07:32:39;76826.69;;;-143.36;51.89
39209;BME280;24929;51.982;4.664;2023-05-14T07:35:05;76911.00;;;-143.36;53.22
39209;BME280;24929;51.982;4.664;2023-05-14T07:37:31;76842.75;;;-143.36;52.78
39209;BME280;24929;51.982;4.664;2023-05-14T07:39:56;76878.88;;;-143.36;52.41
39209;BME280;24929;51.982;4.664;2023-05-14T07:42:21;76824.69;;;-143.36;52.76
39209;BME280;24929;51.982;4.664;2023-05-14T07:44:47;76774.53;;;-143.36;51.06
39209;BME280;24929;51.982;4.664;2023-05-14T07:47:12;76756.47;;;-143.36;50.93
39209;BME280;24929;51.982;4.664;2023-05-14T07:49:37;76702.28;;;-143.36;50.03
39209;BME280;24929;51.982;4.664;2023-05-14T07:52:03;76784.56;;;-143.36;50.57
39209;BME280;24929;51.982;4.664;2023-05-14T07:54:28;76790.56;;;-143.36;51.12
39209;BME280;24929;51.982;4.664;2023-05-14T07:56:54;76734.38;;;-143.36;50.26
39209;BME280;24929;51.982;4.664;2023-05-14T07:59:19;76810.66;;;-143.36;52.18
39209;BME280;24929;51.982;4.664;2023-05-14T08:01:44;76786.56;;;-143.36;51.31
39209;BME280;24929;51.982;4.664;2023-05-14T08:04:10;76832.72;;;-143.36;51.49
39209;BME280;24929;51.982;4.664;2023-05-14T08:06:40;76784.56;;;-143.36;52.08
39209;BME280;24929;51.982;4.664;2023-05-14T08:09:06;76762.47;;;-143.36;51.06
39209;BME280;24929;51.982;4.664;2023-05-14T08:11:33;76708.28;;;-143.36;51.17
39209;BME280;24929;51.982;4.664;2023-05-14T08:13:58;76694.25;;;-143.36;49.42
39209;BME280;24929;51.982;4.664;2023-05-14T08:16:23;76638.06;;;-143.36;48.72
39209;BME280;24929;51.982;4.664;2023-05-14T08:18:50;76628.03;;;-143.36;48.09
39209;BME280;24929;51.982;4.664;2023-05-14T08:21:15;76603.94;;;-143.36;46.87
39209;BME280;24929;51.982;4.664;2023-05-14T08:23:41;76587.88;;;-143.36;47.26
39209;BME280;24929;51.982;4.664;2023-05-14T08:26:06;76541.72;;;-143.36;48.00
39209;BME280;24929;51.982;4.664;2023-05-14T08:28:32;76433.38;;;-143.36;45.88
39209;BME280;24929;51.982;4.664;2023-05-14T08:30:58;76427.34;;;-143.36;45.16
39209;BME280;24929;51.982;4.664;2023-05-14T08:33:23;76407.28;;;-143.36;43.42
39209;BME280;24929;51.982;4.664;2023-05-14T08:35:51;76407.28;;;-143.36;43.60
39209;BME280;24929;51.982;4.664;2023-05-14T08:38:16;76443.41;;;-143.36;43.62
39209;BME280;24929;51.982;4.664;2023-05-14T08:40:47;76443.41;;;-143.36;43.62
39209;BME280;24929;51.982;4.664;2023-05-14T08:43:14;76443.41;;;-143.36;43.62
39209;BME280;24929;51.982;4.664;2023-05-14T08:45:43;76419.31;;;-143.36;44.31
39209;BME280;24929;51.982;4.664;2023-05-14T08:48:10;76296.91;;;-143.36;42.98
39209;BME280;24929;51.982;4.664;2023-05-14T08:50:39;76288.91;;;-143.36;42.39
39209;BME280;24929;51.982;4.664;2023-05-14T08:53:05;76323.00;;;-143.36;42.13
39209;BME280;24929;51.982;4.664;2023-05-14T08:55:30;76359.13;;;-143.36;43.07
39209;BME280;24929;51.982;4.664;2023-05-14T08:57:58;76389.22;;;-143.36;43.71
39209;BME280;24929;51.982;4.664;2023-05-14T09:00:23;76367.16;;;-143.36;43.69
39209;BME280;24929;51.982;4.664;2023-05-14T09:02:50;76321.00;;;-143.36;43.02
39209;BME280;24929;51.982;4.664;2023-05-14T09:05:18;76304.94;;;-143.36;42.59
39209;BME280;24929;51.982;4.664;2023-05-14T09:07:44;76335.03;;;-143.36;42.93
39209;BME280;24929;51.982;4.664;2023-05-14T09:10:10;76331.03;;;-143.36;42.58
39209;BME280;24929;51.982;4.664;2023-05-14T09:12:35;76341.06;;;-143.36;42.79
39209;BME280;24929;51.982;4.664;2023-05-14T09:15:00;76268.81;;;-143.36;42.26
39209;BME280;24929;51.982;4.664;2023-05-14T09:17:26;76284.88;;;-143.36;42.14
39209;BME280;24929;51.982;4.664;2023-05-14T09:19:52;76284.88;;;-143.36;42.14
39209;BME280;24929;51.982;4.664;2023-05-14T09:22:18;76310.97;;;-143.36;43.08
39209;BME280;24929;51.982;4.664;2023-05-14T09:24:44;76272.84;;;-143.36;42.99
39209;BME280;24929;51.982;4.664;2023-05-14T09:27:19;76190.56;;;-143.36;40.72
39209;BME280;24929;51.982;4.664;2023-05-14T09:32:12;61628.25;;;-143.36;40.67
39209;BME280;24929;51.982;4.664;2023-05-14T09:34:38;76138.41;;;-143.36;40.32
39209;BME280;24929;51.982;4.664;2023-05-14T09:37:06;76090.25;;;-143.36;38.84
39209;BME280;24929;51.982;4.664;2023-05-14T09:39:33;76124.34;;;-143.36;39.18
39209;BME280;24929;51.982;4.664;2023-05-14T09:41:58;76146.44;;;-143.36;39.68
39209;BME280;24929;51.982;4.664;2023-05-14T09:44:24;76170.50;;;-143.36;39.70
39209;BME280;24929;51.982;4.664;2023-05-14T09:46:51;76180.53;;;-143.36;40.08
39209;BME280;24929;51.982;4.664;2023-05-14T09:49:17;76200.59;;;-143.36;39.82
39209;BME280;24929;51.982;4.664;2023-05-14T09:51:43;76180.53;;;-143.36;40.00
39209;BME280;24929;51.982;4.664;2023-05-14T09:54:08;76168.50;;;-143.36;39.70
39209;BME280;24929;51.982;4.664;2023-05-14T09:56:35;76106.28;;;-143.36;39.52
39209;BME280;24929;51.982;4.664;2023-05-14T09:59:01;115656.84;;;-143.36;0.00
39209;BME280;24929;51.982;4.664;2023-05-14T10:01:28;76080.22;;;-143.36;39.36
39209;BME280;24929;51.982;4.664;2023-05-14T10:03:54;76098.28;;;-143.36;38.82
39209;BME280;24929;51.982;4.664;2023-05-14T10:06:32;76022.03;;;-143.36;37.79
39209;BME280;24929;51.982;4.664;2023-05-14T10:09:03;76048.09;;;-143.36;37.68
39209;BME280;24929;51.982;4.664;2023-05-14T10:11:32;76048.09;;;-143.36;37.68
39209;BME280;24929;51.982;4.664;2023-05-14T10:16:33;76032.06;;;-143.36;38.02
39209;BME280;24929;51.982;4.664;2023-05-14T10:19:08;76070.19;;;-143.36;38.49
39209;BME280;24929;51.982;4.664;2023-05-14T10:21:35;75973.88;;;-143.36;38.24
39209;BME280;24929;51.982;4.664;2023-05-14T10:24:05;75937.75;;;-143.36;37.55
39209;BME280;24929;51.982;4.664;2023-05-14T10:26:31;75945.78;;;-143.36;37.53
39209;BME280;24929;51.982;4.664;2023-05-14T10:28:57;61628.25;;;-143.36;37.53
39209;BME280;24929;51.982;4.664;2023-05-14T10:32:03;75885.59;;;-143.36;36.58
39209;BME280;24929;51.982;4.664;2023-05-14T10:34:34;75899.63;;;-143.36;38.16
39209;BME280;24929;51.982;4.664;2023-05-14T10:37:03;75901.63;;;-143.36;38.43
39209;BME280;24929;51.982;4.664;2023-05-14T10:39:52;75803.31;;;-143.36;36.71
39209;BME280;24929;51.982;4.664;2023-05-14T10:42:25;75807.34;;;-143.36;36.59
39209;BME280;24929;51.982;4.664;2023-05-14T10:45:03;75801.31;;;-143.36;36.98
39209;BME280;24929;51.982;4.664;2023-05-14T10:47:31;75833.41;;;-143.36;37.85
39209;BME280;24929;51.982;4.664;2023-05-14T10:49:58;75827.41;;;-143.36;36.14
39209;BME280;24929;51.982;4.664;2023-05-14T10:52:25;75829.41;;;-143.36;36.61
39209;BME280;24929;51.982;4.664;2023-05-14T10:54:55;75767.22;;;-143.36;36.62
39209;BME280;24929;51.982;4.664;2023-05-14T10:57:22;75767.22;;;-143.36;36.62
39209;BME280;24929;51.982;4.664;2023-05-14T10:59:50;75849.47;;;-143.36;34.71
39209;BME280;24929;51.982;4.664;2023-05-14T11:02:28;75849.47;;;-143.36;34.71
39209;BME280;24929;51.982;4.664;2023-05-14T11:07:29;75773.22;;;-143.36;36.45
39209;BME280;24929;51.982;4.664;2023-05-14T11:10:03;75719.06;;;-143.36;36.64
39209;BME280;24929;51.982;4.664;2023-05-14T11:12:29;75731.09;;;-143.36;36.69
39209;BME280;24929;51.982;4.664;2023-05-14T11:14:56;61628.25;;;188.38;36.69
39209;BME280;24929;51.982;4.664;2023-05-14T11:17:23;75666.91;;;-143.36;36.10
39209;BME280;24929;51.982;4.664;2023-05-14T11:19:48;75676.94;;;-143.36;35.21
39209;BME280;24929;51.982;4.664;2023-05-14T11:22:14;75729.09;;;-143.36;36.68
39209;BME280;24929;51.982;4.664;2023-05-14T11:24:39;75707.03;;;-143.36;36.06
39209;BME280;24929;51.982;4.664;2023-05-14T11:27:09;75632.78;;;-143.36;35.94
39209;BME280;24929;51.982;4.664;2023-05-14T11:29:36;75745.13;;;-143.36;37.33
39209;BME280;24929;51.982;4.664;2023-05-14T11:32:04;75654.84;;;-143.36;36.68
39209;BME280;24929;51.982;4.664;2023-05-14T11:34:29;75680.94;;;-143.36;36.73
39209;BME280;24929;51.982;4.664;2023-05-14T11:36:55;75729.09;;;-143.36;36.16
39209;BME280;24929;51.982;4.664;2023-05-14T11:39:20;75711.03;;;-143.36;36.50
39209;BME280;24929;51.982;4.664;2023-05-14T11:41:46;61628.25;;;-143.36;100.00
39209;BME280;24929;51.982;4.664;2023-05-14T11:44:11;75674.91;;;-143.36;35.84
39209;BME280;24929;51.982;4.664;2023-05-14T11:46:37;75646.84;;;-143.36;36.06
39209;BME280;24929;51.982;4.664;2023-05-14T11:49:05;75646.84;;;-143.36;36.06
39209;BME280;24929;51.982;4.664;2023-05-14T11:51:31;75570.59;;;-143.36;35.21
39209;BME280;24929;51.982;4.664;2023-05-14T11:53:57;75783.25;;;-143.36;36.57
39209;BME280;24929;51.982;4.664;2023-05-14T11:56:25;75644.81;;;-143.36;35.43
39209;BME280;24929;51.982;4.664;2023-05-14T11:58:56;75644.81;;;-143.36;35.43
39209;BME280;24929;51.982;4.664;2023-05-14T12:01:24;75642.81;;;-143.36;35.81
39209;BME280;24929;51.982;4.664;2023-05-14T12:03:50;75638.81;;;-143.36;35.34
39209;BME280;24929;51.982;4.664;2023-05-14T12:06:17;75586.66;;;-143.36;35.58
39209;BME280;24929;51.982;4.664;2023-05-14T12:08:42;75598.69;;;-143.36;35.71
39209;BME280;24929;51.982;4.664;2023-05-14T12:11:07;75580.63;;;-143.36;35.69
39209;BME280;24929;51.982;4.664;2023-05-14T12:13:33;75604.69;;;-143.36;35.45
39209;BME280;24929;51.982;4.664;2023-05-14T12:16:00;75584.63;;;-143.36;35.12
39209;BME280;24929;51.982;4.664;2023-05-14T12:18:27;75566.59;;;-143.36;35.71
39209;BME280;24929;51.982;4.664;2023-05-14T12:20:53;75608.72;;;-143.36;34.48
39209;BME280;24929;51.982;4.664;2023-05-14T12:23:28;75614.72;;;-143.36;34.00
39209;BME280;24929;51.982;4.664;2023-05-14T12:25:54;75650.84;;;-143.36;35.36
39209;BME280;24929;51.982;4.664;2023-05-14T12:28:22;75646.84;;;-143.36;35.44
39209;BME280;24929;51.982;4.664;2023-05-14T12:30:47;75626.78;;;-143.36;36.29
39209;BME280;24929;51.982;4.664;2023-05-14T12:33:19;75580.63;;;-143.36;35.60
39209;BME280;24929;51.982;4.664;2023-05-14T12:35:47;75638.81;;;-143.36;35.36
39209;BME280;24929;51.982;4.664;2023-05-14T12:38:12;75640.81;;;-143.36;35.81
39209;BME280;24929;51.982;4.664;2023-05-14T12:40:38;75592.66;;;-143.36;35.65
39209;BME280;24929;51.982;4.664;2023-05-14T12:43:03;75662.88;;;-143.36;36.12
39209;BME280;24929;51.982;4.664;2023-05-14T12:45:29;75602.69;;;-143.36;35.21
39209;BME280;24929;51.982;4.664;2023-05-14T12:47:54;75610.72;;;-143.36;35.65